Cancún International Airport
MMUN : rendu visible

Aérodrome :











RETROUVEZ-NOUS SUR...

 
LOGIN :

S'inscrire | Disclaimer

   EN    FR    IT 

 









Légende :    VFR   VFR Marginal   IFR   IFR Intensif   IFR Très Intensif
Visi : 
Plafond : 
>= 8 km
>= 3000ft
5 à 8 km
1000 à 3000 ft
1500m à 5 km
500 à 1000 ft
800 à 1500m
200 à 500 ft
< 800m
< 200 ft
Symboles :   Orages  Brouillard  Fortes neiges  Fortes précipitations  Vent > 20 kt






- Altitude de l'aérodrome : 20 ft
- Code IATA : CUN


MMUN - Cancún International

DERNIER METAR :
  • 011147Z 10009KT 7SM SCT015TCU BKN080 OVC250 28/27 A2990 RMK SLP123 55002 959 8/277 HZY

METARs EXPIRÉS :
  • 011046Z 10008KT 7SM SCT015 BKN080 OVC250 28/28 A2989 RMK 8/177 SC
  • 010944Z 09010KT 7SM SCT015 BKN080 OVC250 28/27 A2988 RMK 8/577

TAF TAF MMUN
Valide du 01 à 12h jusqu'au 02 à 18h UTC


011024Z 0112/0218 09010KT P6SM SCT015 BKN080 OVC250 TX30/0117Z TN27/0112Z
FM011600 12010KT P6SM BKN015 BKN080
FM011800 12015KT 6SM RA BKN015 OVC080
TEMPO 0120/0124 4SM RA
FM020100 10006KT P6SM SCT015 BKN080
FM021600 12015KT P6SM BKN015 BKN300
FIR MMFR / Amérique du Nord



MET'MAP, la Météo Aéronautique d'un coup d'oeil ! - Copyright ORBIFLY Décembre 2007 - Disclaimer

ORBIFLY MET'MAP TEAM :

Programmation & Développement : Alexandra Zaïnal
Sur une idée originale de : Baudouin d'Aumeries
Assistance à la programmation : Marc-Olivier Méhu
Soutien technique & logistique : Manuel Goepfert

Contact : metmap@orbifly.com




SOURCES & CREDITS :

   NOAA       Earth
Advisory